sensor_id;sensor_type;location;lat;lon;timestamp;P1;durP1;ratioP1;P2;durP2;ratioP2
43580;SDS011;29175;51.030;4.606;2024-02-21T00:01:55;38.38;;;9.93;;
43580;SDS011;29175;51.030;4.606;2024-02-21T00:06:51;32.42;;;8.90;;
43580;SDS011;29175;51.030;4.606;2024-02-21T00:09:16;23.00;;;9.10;;
43580;SDS011;29175;51.030;4.606;2024-02-21T00:11:46;37.05;;;9.70;;
43580;SDS011;29175;51.030;4.606;2024-02-21T00:14:13;40.00;;;9.88;;
43580;SDS011;29175;51.030;4.606;2024-02-21T00:16:40;36.45;;;8.77;;
43580;SDS011;29175;51.030;4.606;2024-02-21T00:19:07;31.95;;;10.15;;
43580;SDS011;29175;51.030;4.606;2024-02-21T00:21:33;29.20;;;8.70;;
43580;SDS011;29175;51.030;4.606;2024-02-21T00:24:00;29.73;;;8.63;;
43580;SDS011;29175;51.030;4.606;2024-02-21T00:26:25;27.60;;;8.25;;
43580;SDS011;29175;51.030;4.606;2024-02-21T00:31:20;21.42;;;8.63;;
43580;SDS011;29175;51.030;4.606;2024-02-21T00:36:16;27.00;;;8.35;;
43580;SDS011;29175;51.030;4.606;2024-02-21T00:38:43;25.95;;;9.10;;
43580;SDS011;29175;51.030;4.606;2024-02-21T00:41:11;28.48;;;8.30;;
43580;SDS011;29175;51.030;4.606;2024-02-21T00:43:37;32.22;;;8.13;;
43580;SDS011;29175;51.030;4.606;2024-02-21T00:46:05;29.42;;;8.13;;
43580;SDS011;29175;51.030;4.606;2024-02-21T00:48:33;25.10;;;8.37;;
43580;SDS011;29175;51.030;4.606;2024-02-21T00:51:00;28.90;;;8.27;;
43580;SDS011;29175;51.030;4.606;2024-02-21T00:53:26;23.85;;;8.15;;
43580;SDS011;29175;51.030;4.606;2024-02-21T00:55:51;22.95;;;8.60;;
43580;SDS011;29175;51.030;4.606;2024-02-21T00:58:17;22.98;;;7.90;;
43580;SDS011;29175;51.030;4.606;2024-02-21T01:00:44;27.88;;;9.10;;
43580;SDS011;29175;51.030;4.606;2024-02-21T01:03:10;28.55;;;8.02;;
43580;SDS011;29175;51.030;4.606;2024-02-21T01:05:36;23.02;;;7.43;;
43580;SDS011;29175;51.030;4.606;2024-02-21T01:08:02;26.80;;;8.40;;
43580;SDS011;29175;51.030;4.606;2024-02-21T01:10:28;26.60;;;7.90;;
43580;SDS011;29175;51.030;4.606;2024-02-21T01:12:54;32.45;;;9.30;;
43580;SDS011;29175;51.030;4.606;2024-02-21T01:15:19;25.67;;;8.02;;
43580;SDS011;29175;51.030;4.606;2024-02-21T01:17:46;34.25;;;8.80;;
43580;SDS011;29175;51.030;4.606;2024-02-21T01:20:12;24.48;;;8.50;;
43580;SDS011;29175;51.030;4.606;2024-02-21T01:22:38;20.55;;;8.13;;
43580;SDS011;29175;51.030;4.606;2024-02-21T01:25:05;35.72;;;8.63;;
43580;SDS011;29175;51.030;4.606;2024-02-21T01:27:34;29.00;;;7.93;;
43580;SDS011;29175;51.030;4.606;2024-02-21T01:30:00;32.20;;;9.20;;
43580;SDS011;29175;51.030;4.606;2024-02-21T01:32:27;23.45;;;9.15;;
43580;SDS011;29175;51.030;4.606;2024-02-21T01:34:54;26.77;;;8.38;;
43580;SDS011;29175;51.030;4.606;2024-02-21T01:37:19;27.13;;;9.32;;
43580;SDS011;29175;51.030;4.606;2024-02-21T01:39:45;31.23;;;8.30;;
43580;SDS011;29175;51.030;4.606;2024-02-21T01:42:12;25.55;;;8.77;;
43580;SDS011;29175;51.030;4.606;2024-02-21T01:44:37;31.35;;;8.65;;
43580;SDS011;29175;51.030;4.606;2024-02-21T01:47:03;19.75;;;8.00;;
43580;SDS011;29175;51.030;4.606;2024-02-21T01:49:32;21.63;;;7.63;;
43580;SDS011;29175;51.030;4.606;2024-02-21T01:51:58;26.03;;;8.27;;
43580;SDS011;29175;51.030;4.606;2024-02-21T01:54:24;25.30;;;7.25;;
43580;SDS011;29175;51.030;4.606;2024-02-21T01:56:53;28.15;;;8.50;;
43580;SDS011;29175;51.030;4.606;2024-02-21T01:59:21;24.27;;;7.10;;
43580;SDS011;29175;51.030;4.606;2024-02-21T02:01:49;21.77;;;7.18;;
43580;SDS011;29175;51.030;4.606;2024-02-21T02:04:18;25.45;;;7.95;;
43580;SDS011;29175;51.030;4.606;2024-02-21T02:06:46;22.40;;;7.55;;
43580;SDS011;29175;51.030;4.606;2024-02-21T02:09:13;23.13;;;7.53;;
43580;SDS011;29175;51.030;4.606;2024-02-21T02:11:39;23.35;;;7.20;;
43580;SDS011;29175;51.030;4.606;2024-02-21T02:14:07;18.23;;;6.85;;
43580;SDS011;29175;51.030;4.606;2024-02-21T02:16:33;24.58;;;7.20;;
43580;SDS011;29175;51.030;4.606;2024-02-21T02:18:59;22.70;;;8.50;;
43580;SDS011;29175;51.030;4.606;2024-02-21T02:21:32;19.63;;;7.30;;
43580;SDS011;29175;51.030;4.606;2024-02-21T02:24:04;27.52;;;8.38;;
43580;SDS011;29175;51.030;4.606;2024-02-21T02:26:30;22.27;;;7.82;;
43580;SDS011;29175;51.030;4.606;2024-02-21T02:28:57;38.13;;;9.02;;
43580;SDS011;29175;51.030;4.606;2024-02-21T02:31:23;23.20;;;8.13;;
43580;SDS011;29175;51.030;4.606;2024-02-21T02:33:48;24.77;;;8.27;;
43580;SDS011;29175;51.030;4.606;2024-02-21T02:36:16;23.80;;;8.30;;
43580;SDS011;29175;51.030;4.606;2024-02-21T02:38:42;18.50;;;7.28;;
43580;SDS011;29175;51.030;4.606;2024-02-21T02:41:08;31.25;;;8.82;;
43580;SDS011;29175;51.030;4.606;2024-02-21T02:43:35;23.33;;;8.65;;
43580;SDS011;29175;51.030;4.606;2024-02-21T02:46:02;29.75;;;8.90;;
43580;SDS011;29175;51.030;4.606;2024-02-21T02:48:29;29.10;;;8.68;;
43580;SDS011;29175;51.030;4.606;2024-02-21T02:50:56;26.38;;;9.10;;
43580;SDS011;29175;51.030;4.606;2024-02-21T02:53:28;32.38;;;9.32;;
43580;SDS011;29175;51.030;4.606;2024-02-21T02:55:54;34.78;;;10.30;;
43580;SDS011;29175;51.030;4.606;2024-02-21T02:58:20;33.03;;;9.80;;
43580;SDS011;29175;51.030;4.606;2024-02-21T03:00:47;35.75;;;10.27;;
43580;SDS011;29175;51.030;4.606;2024-02-21T03:03:13;30.05;;;10.40;;
43580;SDS011;29175;51.030;4.606;2024-02-21T03:05:39;32.28;;;10.05;;
43580;SDS011;29175;51.030;4.606;2024-02-21T03:08:06;30.35;;;9.63;;
43580;SDS011;29175;51.030;4.606;2024-02-21T03:10:34;22.23;;;10.43;;
43580;SDS011;29175;51.030;4.606;2024-02-21T03:13:01;28.92;;;9.85;;
43580;SDS011;29175;51.030;4.606;2024-02-21T03:15:27;36.25;;;10.32;;
43580;SDS011;29175;51.030;4.606;2024-02-21T03:17:52;40.17;;;11.40;;
43580;SDS011;29175;51.030;4.606;2024-02-21T03:20:18;32.10;;;10.35;;
43580;SDS011;29175;51.030;4.606;2024-02-21T03:22:45;30.75;;;10.90;;
43580;SDS011;29175;51.030;4.606;2024-02-21T03:25:12;31.85;;;10.82;;
43580;SDS011;29175;51.030;4.606;2024-02-21T03:27:39;44.60;;;10.98;;
43580;SDS011;29175;51.030;4.606;2024-02-21T03:32:34;30.10;;;10.60;;
43580;SDS011;29175;51.030;4.606;2024-02-21T03:37:29;34.38;;;9.95;;
43580;SDS011;29175;51.030;4.606;2024-02-21T03:39:55;32.75;;;10.18;;
43580;SDS011;29175;51.030;4.606;2024-02-21T03:42:21;22.95;;;9.20;;
43580;SDS011;29175;51.030;4.606;2024-02-21T03:44:48;31.85;;;9.70;;
43580;SDS011;29175;51.030;4.606;2024-02-21T03:47:13;33.03;;;10.18;;
43580;SDS011;29175;51.030;4.606;2024-02-21T03:49:39;32.13;;;9.00;;
43580;SDS011;29175;51.030;4.606;2024-02-21T03:52:05;27.90;;;9.00;;
43580;SDS011;29175;51.030;4.606;2024-02-21T03:54:32;40.28;;;8.98;;
43580;SDS011;29175;51.030;4.606;2024-02-21T03:56:59;23.00;;;8.30;;
43580;SDS011;29175;51.030;4.606;2024-02-21T03:59:25;26.17;;;8.77;;
43580;SDS011;29175;51.030;4.606;2024-02-21T04:01:52;29.58;;;9.88;;
43580;SDS011;29175;51.030;4.606;2024-02-21T04:04:18;31.23;;;9.00;;
43580;SDS011;29175;51.030;4.606;2024-02-21T04:06:48;26.13;;;8.95;;
43580;SDS011;29175;51.030;4.606;2024-02-21T04:09:16;23.10;;;8.60;;
43580;SDS011;29175;51.030;4.606;2024-02-21T04:11:44;35.47;;;9.02;;
43580;SDS011;29175;51.030;4.606;2024-02-21T04:14:10;24.88;;;8.27;;
43580;SDS011;29175;51.030;4.606;2024-02-21T04:16:39;25.65;;;8.80;;
43580;SDS011;29175;51.030;4.606;2024-02-21T04:19:05;27.65;;;8.70;;
43580;SDS011;29175;51.030;4.606;2024-02-21T04:21:32;23.63;;;8.38;;
43580;SDS011;29175;51.030;4.606;2024-02-21T04:23:59;29.60;;;8.63;;
43580;SDS011;29175;51.030;4.606;2024-02-21T04:26:26;20.95;;;8.23;;
43580;SDS011;29175;51.030;4.606;2024-02-21T04:28:52;22.67;;;8.48;;
43580;SDS011;29175;51.030;4.606;2024-02-21T04:31:19;28.88;;;8.63;;
43580;SDS011;29175;51.030;4.606;2024-02-21T04:33:45;32.90;;;9.23;;
43580;SDS011;29175;51.030;4.606;2024-02-21T04:36:11;30.15;;;9.00;;
43580;SDS011;29175;51.030;4.606;2024-02-21T04:38:38;30.02;;;9.38;;
43580;SDS011;29175;51.030;4.606;2024-02-21T04:41:05;32.22;;;8.77;;
43580;SDS011;29175;51.030;4.606;2024-02-21T04:43:31;31.17;;;9.20;;
43580;SDS011;29175;51.030;4.606;2024-02-21T04:45:57;26.83;;;9.43;;
43580;SDS011;29175;51.030;4.606;2024-02-21T04:48:23;33.53;;;10.00;;
43580;SDS011;29175;51.030;4.606;2024-02-21T04:50:49;44.75;;;9.93;;
43580;SDS011;29175;51.030;4.606;2024-02-21T04:53:16;30.70;;;9.70;;
43580;SDS011;29175;51.030;4.606;2024-02-21T04:58:13;26.48;;;10.02;;
43580;SDS011;29175;51.030;4.606;2024-02-21T05:00:40;33.50;;;9.63;;
43580;SDS011;29175;51.030;4.606;2024-02-21T05:03:08;28.75;;;9.77;;
43580;SDS011;29175;51.030;4.606;2024-02-21T05:05:34;29.30;;;9.48;;
43580;SDS011;29175;51.030;4.606;2024-02-21T05:08:01;22.92;;;8.80;;
43580;SDS011;29175;51.030;4.606;2024-02-21T05:10:27;33.55;;;9.75;;
43580;SDS011;29175;51.030;4.606;2024-02-21T05:12:53;30.17;;;10.90;;
43580;SDS011;29175;51.030;4.606;2024-02-21T05:15:19;25.17;;;9.60;;
43580;SDS011;29175;51.030;4.606;2024-02-21T05:17:45;32.47;;;10.25;;
43580;SDS011;29175;51.030;4.606;2024-02-21T05:20:11;29.70;;;9.35;;
43580;SDS011;29175;51.030;4.606;2024-02-21T05:22:37;25.83;;;9.35;;
43580;SDS011;29175;51.030;4.606;2024-02-21T05:25:03;38.70;;;10.02;;
43580;SDS011;29175;51.030;4.606;2024-02-21T05:27:29;29.88;;;9.02;;
43580;SDS011;29175;51.030;4.606;2024-02-21T05:29:56;25.02;;;9.23;;
43580;SDS011;29175;51.030;4.606;2024-02-21T05:32:23;27.40;;;9.55;;
43580;SDS011;29175;51.030;4.606;2024-02-21T05:34:49;32.08;;;9.48;;
43580;SDS011;29175;51.030;4.606;2024-02-21T05:37:17;27.85;;;9.30;;
43580;SDS011;29175;51.030;4.606;2024-02-21T05:39:43;36.78;;;10.75;;
43580;SDS011;29175;51.030;4.606;2024-02-21T05:42:10;28.75;;;9.30;;
43580;SDS011;29175;51.030;4.606;2024-02-21T05:44:37;23.88;;;8.18;;
43580;SDS011;29175;51.030;4.606;2024-02-21T05:47:04;29.40;;;10.52;;
43580;SDS011;29175;51.030;4.606;2024-02-21T05:49:38;26.02;;;8.65;;
43580;SDS011;29175;51.030;4.606;2024-02-21T05:54:31;22.95;;;8.25;;
43580;SDS011;29175;51.030;4.606;2024-02-21T05:56:58;23.98;;;8.82;;
43580;SDS011;29175;51.030;4.606;2024-02-21T05:59:24;25.30;;;8.45;;
43580;SDS011;29175;51.030;4.606;2024-02-21T06:01:59;29.98;;;9.38;;
43580;SDS011;29175;51.030;4.606;2024-02-21T06:04:29;27.05;;;9.00;;
43580;SDS011;29175;51.030;4.606;2024-02-21T06:06:55;28.60;;;9.80;;
43580;SDS011;29175;51.030;4.606;2024-02-21T06:09:22;20.77;;;8.27;;
43580;SDS011;29175;51.030;4.606;2024-02-21T06:11:49;20.98;;;8.80;;
43580;SDS011;29175;51.030;4.606;2024-02-21T06:14:14;24.35;;;9.02;;
43580;SDS011;29175;51.030;4.606;2024-02-21T06:16:40;26.05;;;10.23;;
43580;SDS011;29175;51.030;4.606;2024-02-21T06:19:06;26.42;;;8.82;;
43580;SDS011;29175;51.030;4.606;2024-02-21T06:21:32;23.70;;;9.43;;
43580;SDS011;29175;51.030;4.606;2024-02-21T06:24:00;25.38;;;9.13;;
43580;SDS011;29175;51.030;4.606;2024-02-21T06:26:26;23.70;;;8.55;;
43580;SDS011;29175;51.030;4.606;2024-02-21T06:28:51;23.67;;;9.10;;
43580;SDS011;29175;51.030;4.606;2024-02-21T06:31:17;23.90;;;8.02;;
43580;SDS011;29175;51.030;4.606;2024-02-21T06:33:44;24.70;;;8.85;;
43580;SDS011;29175;51.030;4.606;2024-02-21T06:36:10;23.45;;;9.15;;
43580;SDS011;29175;51.030;4.606;2024-02-21T06:38:36;24.25;;;8.88;;
43580;SDS011;29175;51.030;4.606;2024-02-21T06:41:02;23.38;;;8.70;;
43580;SDS011;29175;51.030;4.606;2024-02-21T06:43:29;19.60;;;7.78;;
43580;SDS011;29175;51.030;4.606;2024-02-21T06:45:54;23.48;;;7.75;;
43580;SDS011;29175;51.030;4.606;2024-02-21T06:48:22;23.13;;;7.43;;
43580;SDS011;29175;51.030;4.606;2024-02-21T06:50:48;19.13;;;6.70;;
43580;SDS011;29175;51.030;4.606;2024-02-21T06:53:14;17.52;;;7.15;;
43580;SDS011;29175;51.030;4.606;2024-02-21T06:55:39;17.77;;;6.75;;
43580;SDS011;29175;51.030;4.606;2024-02-21T06:58:06;38.25;;;7.72;;
43580;SDS011;29175;51.030;4.606;2024-02-21T07:00:36;19.08;;;7.95;;
43580;SDS011;29175;51.030;4.606;2024-02-21T07:03:02;19.23;;;6.88;;
43580;SDS011;29175;51.030;4.606;2024-02-21T07:05:30;16.60;;;6.65;;
43580;SDS011;29175;51.030;4.606;2024-02-21T07:07:56;18.45;;;6.82;;
43580;SDS011;29175;51.030;4.606;2024-02-21T07:10:22;18.45;;;6.45;;
43580;SDS011;29175;51.030;4.606;2024-02-21T07:12:50;18.63;;;6.18;;
43580;SDS011;29175;51.030;4.606;2024-02-21T07:15:18;16.70;;;5.90;;
43580;SDS011;29175;51.030;4.606;2024-02-21T07:17:44;16.58;;;6.03;;
43580;SDS011;29175;51.030;4.606;2024-02-21T07:20:09;16.33;;;5.70;;
43580;SDS011;29175;51.030;4.606;2024-02-21T07:22:36;14.52;;;6.00;;
43580;SDS011;29175;51.030;4.606;2024-02-21T07:25:04;15.38;;;5.95;;
43580;SDS011;29175;51.030;4.606;2024-02-21T07:27:32;15.38;;;6.10;;
43580;SDS011;29175;51.030;4.606;2024-02-21T07:29:59;17.83;;;6.05;;
43580;SDS011;29175;51.030;4.606;2024-02-21T07:32:25;13.40;;;5.63;;
43580;SDS011;29175;51.030;4.606;2024-02-21T07:34:51;15.38;;;5.80;;
43580;SDS011;29175;51.030;4.606;2024-02-21T07:37:18;13.45;;;6.28;;
43580;SDS011;29175;51.030;4.606;2024-02-21T07:39:45;16.88;;;6.60;;
43580;SDS011;29175;51.030;4.606;2024-02-21T07:42:10;16.10;;;6.63;;
43580;SDS011;29175;51.030;4.606;2024-02-21T07:44:37;17.35;;;6.70;;
43580;SDS011;29175;51.030;4.606;2024-02-21T07:47:03;23.17;;;7.68;;
43580;SDS011;29175;51.030;4.606;2024-02-21T07:49:29;20.42;;;7.38;;
43580;SDS011;29175;51.030;4.606;2024-02-21T07:51:55;20.20;;;8.10;;
43580;SDS011;29175;51.030;4.606;2024-02-21T07:54:22;19.67;;;8.05;;
43580;SDS011;29175;51.030;4.606;2024-02-21T07:56:48;25.75;;;8.80;;
43580;SDS011;29175;51.030;4.606;2024-02-21T07:59:14;25.10;;;9.25;;
43580;SDS011;29175;51.030;4.606;2024-02-21T08:01:40;22.17;;;8.40;;
43580;SDS011;29175;51.030;4.606;2024-02-21T08:04:07;18.15;;;8.00;;
43580;SDS011;29175;51.030;4.606;2024-02-21T08:06:35;17.77;;;8.02;;
43580;SDS011;29175;51.030;4.606;2024-02-21T08:09:02;16.20;;;7.13;;
43580;SDS011;29175;51.030;4.606;2024-02-21T08:11:29;15.63;;;7.32;;
43580;SDS011;29175;51.030;4.606;2024-02-21T08:13:54;21.00;;;7.40;;
43580;SDS011;29175;51.030;4.606;2024-02-21T08:16:23;17.25;;;7.32;;
43580;SDS011;29175;51.030;4.606;2024-02-21T08:18:49;15.32;;;7.68;;
43580;SDS011;29175;51.030;4.606;2024-02-21T08:21:15;20.00;;;8.05;;
43580;SDS011;29175;51.030;4.606;2024-02-21T08:23:44;19.90;;;7.72;;
43580;SDS011;29175;51.030;4.606;2024-02-21T08:26:11;14.55;;;7.00;;
43580;SDS011;29175;51.030;4.606;2024-02-21T08:28:37;18.17;;;7.15;;
43580;SDS011;29175;51.030;4.606;2024-02-21T08:31:02;16.30;;;6.80;;
43580;SDS011;29175;51.030;4.606;2024-02-21T08:33:29;15.75;;;7.30;;
43580;SDS011;29175;51.030;4.606;2024-02-21T08:35:55;22.40;;;8.10;;
43580;SDS011;29175;51.030;4.606;2024-02-21T08:38:21;17.15;;;7.70;;
43580;SDS011;29175;51.030;4.606;2024-02-21T08:40:48;19.63;;;7.47;;
43580;SDS011;29175;51.030;4.606;2024-02-21T08:43:15;21.38;;;7.93;;
43580;SDS011;29175;51.030;4.606;2024-02-21T08:45:41;17.85;;;7.63;;
43580;SDS011;29175;51.030;4.606;2024-02-21T08:48:06;21.05;;;7.80;;
43580;SDS011;29175;51.030;4.606;2024-02-21T08:50:33;18.75;;;6.88;;
43580;SDS011;29175;51.030;4.606;2024-02-21T08:52:58;18.00;;;7.78;;
43580;SDS011;29175;51.030;4.606;2024-02-21T08:55:25;18.85;;;7.80;;
43580;SDS011;29175;51.030;4.606;2024-02-21T08:57:52;20.70;;;7.70;;
43580;SDS011;29175;51.030;4.606;2024-02-21T09:00:18;21.95;;;7.95;;
43580;SDS011;29175;51.030;4.606;2024-02-21T09:02:48;14.63;;;7.57;;
43580;SDS011;29175;51.030;4.606;2024-02-21T09:05:14;22.42;;;7.78;;
43580;SDS011;29175;51.030;4.606;2024-02-21T09:07:41;19.08;;;7.10;;
43580;SDS011;29175;51.030;4.606;2024-02-21T09:10:07;23.48;;;6.90;;
43580;SDS011;29175;51.030;4.606;2024-02-21T09:12:33;16.63;;;7.05;;
43580;SDS011;29175;51.030;4.606;2024-02-21T09:14:59;17.30;;;7.03;;
43580;SDS011;29175;51.030;4.606;2024-02-21T09:17:27;15.73;;;6.72;;
43580;SDS011;29175;51.030;4.606;2024-02-21T09:19:57;15.75;;;6.68;;
43580;SDS011;29175;51.030;4.606;2024-02-21T09:22:28;14.15;;;6.53;;
43580;SDS011;29175;51.030;4.606;2024-02-21T09:24:55;23.02;;;7.68;;
43580;SDS011;29175;51.030;4.606;2024-02-21T09:27:22;15.48;;;6.43;;
43580;SDS011;29175;51.030;4.606;2024-02-21T09:29:48;23.23;;;6.88;;
43580;SDS011;29175;51.030;4.606;2024-02-21T09:32:13;17.25;;;6.80;;
43580;SDS011;29175;51.030;4.606;2024-02-21T09:34:40;31.25;;;6.35;;
43580;SDS011;29175;51.030;4.606;2024-02-21T09:37:06;14.88;;;5.60;;
43580;SDS011;29175;51.030;4.606;2024-02-21T09:39:31;12.73;;;5.68;;
43580;SDS011;29175;51.030;4.606;2024-02-21T09:41:59;15.93;;;6.28;;
43580;SDS011;29175;51.030;4.606;2024-02-21T09:44:34;14.52;;;5.60;;
43580;SDS011;29175;51.030;4.606;2024-02-21T09:47:06;15.63;;;6.07;;
43580;SDS011;29175;51.030;4.606;2024-02-21T09:49:45;12.05;;;5.55;;
43580;SDS011;29175;51.030;4.606;2024-02-21T09:52:15;18.02;;;5.57;;
43580;SDS011;29175;51.030;4.606;2024-02-21T09:54:44;16.27;;;5.43;;
43580;SDS011;29175;51.030;4.606;2024-02-21T09:57:11;16.23;;;6.05;;
43580;SDS011;29175;51.030;4.606;2024-02-21T09:59:38;15.77;;;5.90;;
43580;SDS011;29175;51.030;4.606;2024-02-21T10:02:08;18.08;;;4.93;;
43580;SDS011;29175;51.030;4.606;2024-02-21T10:07:03;22.88;;;5.82;;
43580;SDS011;29175;51.030;4.606;2024-02-21T10:09:29;15.18;;;5.63;;
43580;SDS011;29175;51.030;4.606;2024-02-21T10:12:07;18.77;;;5.97;;
43580;SDS011;29175;51.030;4.606;2024-02-21T10:14:36;11.63;;;5.38;;
43580;SDS011;29175;51.030;4.606;2024-02-21T10:17:03;21.55;;;5.65;;
43580;SDS011;29175;51.030;4.606;2024-02-21T10:19:35;13.57;;;4.70;;
43580;SDS011;29175;51.030;4.606;2024-02-21T10:22:03;16.27;;;7.18;;
43580;SDS011;29175;51.030;4.606;2024-02-21T10:24:30;16.73;;;5.60;;
43580;SDS011;29175;51.030;4.606;2024-02-21T10:27:04;14.23;;;5.63;;
43580;SDS011;29175;51.030;4.606;2024-02-21T10:29:33;13.93;;;4.68;;
43580;SDS011;29175;51.030;4.606;2024-02-21T10:32:06;13.60;;;5.15;;
43580;SDS011;29175;51.030;4.606;2024-02-21T10:34:37;12.38;;;4.97;;
43580;SDS011;29175;51.030;4.606;2024-02-21T10:37:05;13.48;;;4.68;;
43580;SDS011;29175;51.030;4.606;2024-02-21T10:39:32;12.77;;;4.95;;
43580;SDS011;29175;51.030;4.606;2024-02-21T10:42:00;15.77;;;5.10;;
43580;SDS011;29175;51.030;4.606;2024-02-21T10:44:31;18.60;;;4.72;;
43580;SDS011;29175;51.030;4.606;2024-02-21T10:46:58;9.65;;;4.45;;
43580;SDS011;29175;51.030;4.606;2024-02-21T10:49:29;20.92;;;7.45;;
43580;SDS011;29175;51.030;4.606;2024-02-21T10:57:33;12.63;;;4.93;;
43580;SDS011;29175;51.030;4.606;2024-02-21T11:00:03;14.80;;;5.30;;
43580;SDS011;29175;51.030;4.606;2024-02-21T11:02:34;13.68;;;4.80;;
43580;SDS011;29175;51.030;4.606;2024-02-21T11:05:01;14.13;;;4.20;;
43580;SDS011;29175;51.030;4.606;2024-02-21T11:07:29;14.32;;;4.70;;
43580;SDS011;29175;51.030;4.606;2024-02-21T11:09:57;18.30;;;4.63;;
43580;SDS011;29175;51.030;4.606;2024-02-21T11:12:24;13.52;;;4.70;;
43580;SDS011;29175;51.030;4.606;2024-02-21T11:14:51;13.50;;;4.55;;
43580;SDS011;29175;51.030;4.606;2024-02-21T11:17:17;12.32;;;5.22;;
43580;SDS011;29175;51.030;4.606;2024-02-21T11:19:44;15.60;;;4.88;;
43580;SDS011;29175;51.030;4.606;2024-02-21T11:22:20;9.68;;;4.38;;
43580;SDS011;29175;51.030;4.606;2024-02-21T11:24:47;11.32;;;4.07;;
43580;SDS011;29175;51.030;4.606;2024-02-21T11:27:20;17.58;;;4.28;;
43580;SDS011;29175;51.030;4.606;2024-02-21T11:29:47;17.60;;;5.25;;
43580;SDS011;29175;51.030;4.606;2024-02-21T11:32:17;10.93;;;4.27;;
43580;SDS011;29175;51.030;4.606;2024-02-21T11:34:58;10.43;;;4.18;;
43580;SDS011;29175;51.030;4.606;2024-02-21T11:37:30;13.07;;;4.15;;
43580;SDS011;29175;51.030;4.606;2024-02-21T11:39:58;18.20;;;3.90;;
43580;SDS011;29175;51.030;4.606;2024-02-21T11:42:25;12.55;;;3.55;;
43580;SDS011;29175;51.030;4.606;2024-02-21T11:44:54;11.55;;;3.70;;
43580;SDS011;29175;51.030;4.606;2024-02-21T11:47:24;17.50;;;4.30;;
43580;SDS011;29175;51.030;4.606;2024-02-21T11:49:50;12.20;;;3.88;;
43580;SDS011;29175;51.030;4.606;2024-02-21T11:52:22;10.87;;;3.90;;
43580;SDS011;29175;51.030;4.606;2024-02-21T11:54:51;9.80;;;2.97;;
43580;SDS011;29175;51.030;4.606;2024-02-21T11:57:23;12.93;;;3.60;;
43580;SDS011;29175;51.030;4.606;2024-02-21T11:59:53;16.23;;;3.70;;
43580;SDS011;29175;51.030;4.606;2024-02-21T12:02:20;8.95;;;3.20;;
43580;SDS011;29175;51.030;4.606;2024-02-21T12:04:48;8.95;;;3.42;;
43580;SDS011;29175;51.030;4.606;2024-02-21T12:07:16;11.18;;;4.05;;
43580;SDS011;29175;51.030;4.606;2024-02-21T12:09:43;10.75;;;3.90;;
43580;SDS011;29175;51.030;4.606;2024-02-21T12:12:10;7.63;;;3.60;;
43580;SDS011;29175;51.030;4.606;2024-02-21T12:14:36;12.35;;;4.13;;
43580;SDS011;29175;51.030;4.606;2024-02-21T12:17:03;10.48;;;3.95;;
43580;SDS011;29175;51.030;4.606;2024-02-21T12:19:33;6.10;;;3.70;;
43580;SDS011;29175;51.030;4.606;2024-02-21T12:21:59;7.93;;;3.88;;
43580;SDS011;29175;51.030;4.606;2024-02-21T12:24:25;9.88;;;4.72;;
43580;SDS011;29175;51.030;4.606;2024-02-21T12:26:53;10.90;;;4.38;;
43580;SDS011;29175;51.030;4.606;2024-02-21T12:29:20;10.15;;;3.83;;
43580;SDS011;29175;51.030;4.606;2024-02-21T12:31:47;16.23;;;4.53;;
43580;SDS011;29175;51.030;4.606;2024-02-21T12:34:14;10.88;;;4.15;;
43580;SDS011;29175;51.030;4.606;2024-02-21T12:36:42;13.68;;;4.20;;
43580;SDS011;29175;51.030;4.606;2024-02-21T12:39:15;11.35;;;4.05;;
43580;SDS011;29175;51.030;4.606;2024-02-21T12:41:41;12.73;;;3.90;;
43580;SDS011;29175;51.030;4.606;2024-02-21T12:44:09;11.32;;;4.15;;
43580;SDS011;29175;51.030;4.606;2024-02-21T12:46:36;9.27;;;4.32;;
43580;SDS011;29175;51.030;4.606;2024-02-21T12:49:03;21.58;;;8.07;;
43580;SDS011;29175;51.030;4.606;2024-02-21T12:51:30;18.42;;;6.32;;
43580;SDS011;29175;51.030;4.606;2024-02-21T12:53:57;14.55;;;5.15;;
43580;SDS011;29175;51.030;4.606;2024-02-21T12:56:24;12.15;;;4.50;;
43580;SDS011;29175;51.030;4.606;2024-02-21T12:58:52;13.98;;;4.20;;
43580;SDS011;29175;51.030;4.606;2024-02-21T13:01:18;15.70;;;6.32;;
43580;SDS011;29175;51.030;4.606;2024-02-21T13:03:44;12.23;;;4.38;;
43580;SDS011;29175;51.030;4.606;2024-02-21T13:06:12;9.55;;;4.45;;
43580;SDS011;29175;51.030;4.606;2024-02-21T13:08:38;11.45;;;4.20;;
43580;SDS011;29175;51.030;4.606;2024-02-21T13:11:05;17.08;;;5.10;;
43580;SDS011;29175;51.030;4.606;2024-02-21T13:13:30;10.52;;;4.47;;
43580;SDS011;29175;51.030;4.606;2024-02-21T13:15:59;9.85;;;4.30;;
43580;SDS011;29175;51.030;4.606;2024-02-21T13:18:25;10.40;;;4.18;;
43580;SDS011;29175;51.030;4.606;2024-02-21T13:20:51;14.95;;;4.45;;
43580;SDS011;29175;51.030;4.606;2024-02-21T13:23:19;11.70;;;4.47;;
43580;SDS011;29175;51.030;4.606;2024-02-21T13:25:47;17.08;;;4.40;;
43580;SDS011;29175;51.030;4.606;2024-02-21T13:28:14;9.18;;;4.15;;
43580;SDS011;29175;51.030;4.606;2024-02-21T13:30:43;14.88;;;4.97;;
43580;SDS011;29175;51.030;4.606;2024-02-21T13:33:09;12.63;;;4.55;;
43580;SDS011;29175;51.030;4.606;2024-02-21T13:35:36;11.93;;;4.18;;
43580;SDS011;29175;51.030;4.606;2024-02-21T13:38:02;15.90;;;4.68;;
43580;SDS011;29175;51.030;4.606;2024-02-21T13:40:29;8.55;;;4.88;;
43580;SDS011;29175;51.030;4.606;2024-02-21T13:42:56;10.05;;;4.47;;
43580;SDS011;29175;51.030;4.606;2024-02-21T13:45:23;11.90;;;5.13;;
43580;SDS011;29175;51.030;4.606;2024-02-21T13:47:49;14.40;;;4.72;;
43580;SDS011;29175;51.030;4.606;2024-02-21T13:50:15;15.90;;;4.22;;
43580;SDS011;29175;51.030;4.606;2024-02-21T13:52:43;9.52;;;4.28;;
43580;SDS011;29175;51.030;4.606;2024-02-21T13:55:09;14.80;;;4.82;;
43580;SDS011;29175;51.030;4.606;2024-02-21T13:57:35;12.52;;;5.10;;
43580;SDS011;29175;51.030;4.606;2024-02-21T14:00:02;15.27;;;4.55;;
43580;SDS011;29175;51.030;4.606;2024-02-21T14:02:36;14.25;;;4.68;;
43580;SDS011;29175;51.030;4.606;2024-02-21T14:05:02;11.95;;;5.07;;
43580;SDS011;29175;51.030;4.606;2024-02-21T14:07:32;9.13;;;4.18;;
43580;SDS011;29175;51.030;4.606;2024-02-21T14:12:29;11.40;;;4.90;;
43580;SDS011;29175;51.030;4.606;2024-02-21T14:14:57;10.05;;;4.38;;
43580;SDS011;29175;51.030;4.606;2024-02-21T14:17:24;10.02;;;4.30;;
43580;SDS011;29175;51.030;4.606;2024-02-21T14:19:50;15.43;;;5.00;;
43580;SDS011;29175;51.030;4.606;2024-02-21T14:22:17;11.20;;;4.63;;
43580;SDS011;29175;51.030;4.606;2024-02-21T14:24:43;12.40;;;4.68;;
43580;SDS011;29175;51.030;4.606;2024-02-21T14:27:12;12.70;;;5.25;;
43580;SDS011;29175;51.030;4.606;2024-02-21T14:29:39;11.35;;;4.72;;
43580;SDS011;29175;51.030;4.606;2024-02-21T14:32:06;12.13;;;4.80;;
43580;SDS011;29175;51.030;4.606;2024-02-21T14:34:35;12.05;;;4.82;;
43580;SDS011;29175;51.030;4.606;2024-02-21T14:37:02;14.27;;;4.88;;
43580;SDS011;29175;51.030;4.606;2024-02-21T14:39:30;17.23;;;5.95;;
43580;SDS011;29175;51.030;4.606;2024-02-21T14:41:57;12.65;;;4.80;;
43580;SDS011;29175;51.030;4.606;2024-02-21T14:44:24;14.07;;;5.78;;
43580;SDS011;29175;51.030;4.606;2024-02-21T14:46:49;13.38;;;5.18;;
43580;SDS011;29175;51.030;4.606;2024-02-21T14:49:15;11.75;;;5.47;;
43580;SDS011;29175;51.030;4.606;2024-02-21T14:51:42;14.40;;;5.28;;
43580;SDS011;29175;51.030;4.606;2024-02-21T14:54:08;15.55;;;5.13;;
43580;SDS011;29175;51.030;4.606;2024-02-21T14:56:35;16.48;;;5.43;;
43580;SDS011;29175;51.030;4.606;2024-02-21T14:59:02;10.88;;;4.90;;
43580;SDS011;29175;51.030;4.606;2024-02-21T15:01:29;15.30;;;5.72;;